CYGP

Details ICAO CYGP (YGP)
Name GASPE
Region Canada
Timezone America/Montreal (UTC-4.0)
Plans Departing 9
Arriving 25
Stats Elevation 108 ft / 33 m (AMSL)
Location 48.775278° -64.478611°
Runways 1
Magnetic Variation 18.507° W
Sunrise 2018-05-24 08:27:29 UTC / 2018-05-24 04:27:29 Local
Sunset 2018-05-25 00:04:56 UTC / 2018-05-24 20:04:56 Local
Advertisement - Login to hide

Runways

ID Width Length Bearing (true) Bearing (mag) Surface Threshold Offset Overrun Length
11 150 ft / 46 m 4,488 ft / 1,368 m 83.95° 102.46° Asphalt 0 ft / 0 m 0 ft / 0 m
29 150 ft / 46 m 4,488 ft / 1,368 m 263.96° 282.47° Asphalt 0 ft / 0 m 0 ft / 0 m

Approach Navaids

Runway Type Ident Frequency Range Bearing (true) Bearing (mag) Slope Elevation
11 Localiser IGP 110.30 MHz 18 nm / 33 km 83.32° 101.83° - 108 ft / 33 m (AMSL)

Map

Weather


0- 5 10 15 20 25 30 35+ Temperature / ° C

Clouds and Precipitation
Forecast for 2018-05-24 12:00 UTC. Updated an hour ago

Ground ~20,000 ft ~40,000 ft Winds

METAR

CYGP 241200Z 23004KT 210V280 15SM SKC 07/M05 A3004 RMK SLP176

TAF

TAF CYGP 240738Z 2408/2420 VRB03KT P6SM SKC FM241500 08010KT P6SM SCT040 FM241800 10010KT P6SM -SHRA OVC040 RMK NXT FCST BY 241400Z
Warning: Do not use this data for real-world aviation or navigation. No guarantee of current accuracy is given.